Air Navigation Services of Czech Republic
Airport: LKPD Updated:  07.02.2023 14:29:31  UTC
 METAR LKPD 07.02. 14:30 ...
METAR LKPD 071430Z VRB02KT CAVOK M01/M06 Q1040 NOSIG RMK BLU BLU=
 TAF LKPD 07.02. 11:00 ...
TAF LKPD 071100Z 0712/0812 VRB02KT CAVOK      TEMPO 0722/0808 5000      PROB30 TEMPO 0804/0807 2000 BR=